createdAt,value
2022-09-21T00:01:00.928Z,2.32
2022-09-21T00:02:03.538Z,4.87
2022-09-21T00:03:06.463Z,4.05
2022-09-21T00:04:09.125Z,2.41
2022-09-21T00:05:11.703Z,1.76
2022-09-21T00:06:14.744Z,3.33
2022-09-21T00:07:17.376Z,4.11
2022-09-21T00:08:19.816Z,2.15
2022-09-21T00:09:22.251Z,2.99
2022-09-21T00:10:26.057Z,3.12
2022-09-21T00:11:28.493Z,3.38
2022-09-21T00:12:30.969Z,2.67
2022-09-21T00:13:33.425Z,3.89
2022-09-21T00:14:35.851Z,5.24
2022-09-21T00:15:38.368Z,3.53
2022-09-21T00:16:41.771Z,7.44
2022-09-21T00:17:44.253Z,3.29
2022-09-21T00:18:46.693Z,5.93
2022-09-21T00:19:49.164Z,3.53
2022-09-21T00:20:51.860Z,2.19
2022-09-21T00:21:54.298Z,4.47
2022-09-21T00:22:56.839Z,5.37
2022-09-21T00:23:59.316Z,3.35
2022-09-21T00:25:01.772Z,6.28
2022-09-21T00:26:04.848Z,3.48
2022-09-21T00:27:07.311Z,7.62
2022-09-21T00:28:09.754Z,5.47
2022-09-21T00:29:12.301Z,3.95
2022-09-21T00:30:15.562Z,3.13
2022-09-21T00:31:18.142Z,4.14
2022-09-21T00:32:21.208Z,3.81
2022-09-21T00:33:23.655Z,3.59
2022-09-21T00:34:26.104Z,2.97
2022-09-21T00:35:28.582Z,4.46
2022-09-21T00:36:31.893Z,6.14
2022-09-21T00:37:34.348Z,4.66
2022-09-21T00:38:36.851Z,6.07
2022-09-21T00:39:39.351Z,4.37
2022-09-21T00:40:42.220Z,9.27
2022-09-21T00:41:44.702Z,5.53
2022-09-21T00:42:47.288Z,2.73
2022-09-21T00:43:49.791Z,5.65
2022-09-21T00:44:52.213Z,4.77
2022-09-21T00:45:54.684Z,3.39
2022-09-21T00:46:57.668Z,5.20
2022-09-21T00:48:00.132Z,3.41
2022-09-21T00:49:02.585Z,4.74
2022-09-21T00:50:05.336Z,3.85
2022-09-21T00:51:07.780Z,3.01
2022-09-21T00:52:10.246Z,1.85
2022-09-21T00:53:12.995Z,2.76
2022-09-21T00:54:15.475Z,3.09
2022-09-21T00:55:17.927Z,3.76
2022-09-21T00:56:22.183Z,2.10
2022-09-21T00:57:24.658Z,1.69
2022-09-21T00:58:27.100Z,6.79
2022-09-21T00:59:30.427Z,2.45
2022-09-21T01:00:33.528Z,6.81
2022-09-21T01:01:35.965Z,4.04
2022-09-21T01:02:38.981Z,2.01
2022-09-21T01:03:41.420Z,2.73
2022-09-21T01:04:43.861Z,1.68
2022-09-21T01:05:46.301Z,2.51
2022-09-21T01:06:48.991Z,3.47
2022-09-21T01:07:51.459Z,3.71
2022-09-21T01:08:53.905Z,2.45
2022-09-21T01:09:56.654Z,2.29
2022-09-21T01:10:59.603Z,2.27
2022-09-21T01:12:02.043Z,1.81
2022-09-21T01:13:04.566Z,2.63
2022-09-21T01:14:07.993Z,2.78
2022-09-21T01:15:10.691Z,3.29
2022-09-21T01:16:14.923Z,1.89
2022-09-21T01:17:17.530Z,2.99
2022-09-21T01:18:20.030Z,2.35
2022-09-21T01:19:22.478Z,4.45
2022-09-21T01:20:25.828Z,2.65
2022-09-21T01:21:28.284Z,6.51
2022-09-21T01:22:30.713Z,1.97
2022-09-21T01:23:33.207Z,2.41
2022-09-21T01:24:35.829Z,2.99
2022-09-21T01:25:38.583Z,2.44
2022-09-21T01:26:41.530Z,1.73
2022-09-21T01:27:44.022Z,2.53
2022-09-21T01:28:46.494Z,2.46
2022-09-21T01:29:48.949Z,3.00
2022-09-21T01:30:51.898Z,2.69
2022-09-21T01:31:54.379Z,2.89
2022-09-21T01:32:56.886Z,2.98
2022-09-21T01:33:59.604Z,3.97
2022-09-21T01:35:02.270Z,2.51
2022-09-21T01:36:04.929Z,3.28
2022-09-21T01:37:07.374Z,2.29
2022-09-21T01:38:09.813Z,2.41
2022-09-21T01:39:12.285Z,3.34
2022-09-21T01:40:15.933Z,3.01
2022-09-21T01:41:18.462Z,2.08
2022-09-21T01:42:20.900Z,4.71
2022-09-21T01:43:23.554Z,5.52
2022-09-21T01:44:26.027Z,2.04
2022-09-21T01:45:28.644Z,2.33
2022-09-21T01:46:31.629Z,3.49
2022-09-21T01:47:34.116Z,2.73
2022-09-21T01:48:36.551Z,4.91
2022-09-21T01:49:39.032Z,2.92
2022-09-21T01:50:42.316Z,5.10
2022-09-21T01:51:44.793Z,3.55
2022-09-21T01:52:47.227Z,3.09
2022-09-21T01:53:49.684Z,2.36
2022-09-21T01:54:52.156Z,4.01
2022-09-21T01:55:54.603Z,1.98
2022-09-21T01:56:57.346Z,4.19
2022-09-21T01:57:59.993Z,3.81
2022-09-21T01:59:02.437Z,7.09
2022-09-21T02:00:05.436Z,6.38
2022-09-21T02:01:07.967Z,6.04
2022-09-21T02:02:11.157Z,5.39
2022-09-21T02:03:14.012Z,4.46
2022-09-21T02:04:16.465Z,2.68
2022-09-21T02:05:19.147Z,2.81
2022-09-21T02:06:23.715Z,3.86
2022-09-21T02:07:26.193Z,2.83
2022-09-21T02:08:28.635Z,2.24
2022-09-21T02:09:31.077Z,2.67
2022-09-21T02:10:33.971Z,1.93
2022-09-21T02:11:36.414Z,3.32
2022-09-21T02:12:38.876Z,2.55
2022-09-21T02:13:41.320Z,2.79
2022-09-21T02:14:43.779Z,2.23
2022-09-21T02:15:46.372Z,2.59
2022-09-21T02:16:48.999Z,3.36
2022-09-21T02:17:51.447Z,3.47
2022-09-21T02:18:53.996Z,7.08
2022-09-21T02:19:56.436Z,2.77
2022-09-21T02:20:59.409Z,4.92
2022-09-21T02:22:02.085Z,4.28
2022-09-21T02:23:04.748Z,2.19
2022-09-21T02:24:07.193Z,3.03
2022-09-21T02:25:09.637Z,2.21
2022-09-21T02:26:12.729Z,3.54
2022-09-21T02:27:15.166Z,8.43
2022-09-21T02:28:17.815Z,3.15
2022-09-21T02:29:20.484Z,4.29
2022-09-21T02:30:23.440Z,6.60
2022-09-21T02:31:26.168Z,3.88
2022-09-21T02:32:28.761Z,2.78
2022-09-21T02:33:31.209Z,3.43
2022-09-21T02:34:33.644Z,2.31
2022-09-21T02:35:36.087Z,3.09
2022-09-21T02:36:38.849Z,3.19
2022-09-21T02:37:41.319Z,4.22
2022-09-21T02:38:43.867Z,2.59
2022-09-21T02:39:46.307Z,6.02
2022-09-21T02:40:49.148Z,3.47
2022-09-21T02:41:51.831Z,7.26
2022-09-21T02:42:54.515Z,7.73
2022-09-21T02:43:56.998Z,3.87
2022-09-21T02:44:59.533Z,2.69
2022-09-21T02:46:02.169Z,3.23
2022-09-21T02:47:04.629Z,4.39
2022-09-21T02:48:07.106Z,5.83
2022-09-21T02:49:09.557Z,6.47
2022-09-21T02:50:13.211Z,4.08
2022-09-21T02:51:15.654Z,10.49
2022-09-21T02:52:18.231Z,7.03
2022-09-21T02:53:20.867Z,3.06
2022-09-21T02:54:23.343Z,5.87
2022-09-21T02:55:25.784Z,4.61
2022-09-21T02:56:29.864Z,5.61
2022-09-21T02:57:32.328Z,4.00
2022-09-21T02:58:34.864Z,2.71
2022-09-21T02:59:37.501Z,7.21
2022-09-21T03:00:40.549Z,3.06
2022-09-21T03:01:43.164Z,3.41
2022-09-21T03:02:45.762Z,2.83
2022-09-21T03:03:48.238Z,2.39
2022-09-21T03:04:50.726Z,3.91
2022-09-21T03:05:53.164Z,4.73
2022-09-21T03:06:55.903Z,3.43
2022-09-21T03:07:58.407Z,4.29
2022-09-21T03:09:00.928Z,3.13
2022-09-21T03:10:03.566Z,4.36
2022-09-21T03:11:05.999Z,6.65
2022-09-21T03:12:08.636Z,4.01
2022-09-21T03:13:11.275Z,4.46
2022-09-21T03:14:13.716Z,3.19
2022-09-21T03:15:16.154Z,3.37
2022-09-21T03:16:19.357Z,5.79
2022-09-21T03:17:22.178Z,2.31
2022-09-21T03:18:24.790Z,3.93
2022-09-21T03:19:27.236Z,4.56
2022-09-21T03:20:30.596Z,11.06
2022-09-21T03:21:33.235Z,6.15
2022-09-21T03:22:35.716Z,8.95
2022-09-21T03:23:38.228Z,5.33
2022-09-21T03:24:40.663Z,3.91
2022-09-21T03:25:43.100Z,5.31
2022-09-21T03:26:45.647Z,5.93
2022-09-21T03:27:48.403Z,5.01
2022-09-21T03:28:50.932Z,3.32
2022-09-21T03:29:53.373Z,4.81
2022-09-21T03:30:56.061Z,3.74
2022-09-21T03:31:58.783Z,4.37
2022-09-21T03:33:01.248Z,3.35
2022-09-21T03:34:03.718Z,4.19
2022-09-21T03:35:06.152Z,6.72
2022-09-21T03:36:09.100Z,5.27
2022-09-21T03:37:11.532Z,6.21
2022-09-21T03:38:14.049Z,3.73
2022-09-21T03:39:16.574Z,4.87
2022-09-21T03:40:19.476Z,8.73
2022-09-21T03:41:22.482Z,7.49
2022-09-21T03:42:25.408Z,7.00
2022-09-21T03:43:28.046Z,4.13
2022-09-21T03:44:30.513Z,5.66
2022-09-21T03:45:33.051Z,4.09
2022-09-21T03:46:35.853Z,4.56
2022-09-21T03:47:38.359Z,5.47
2022-09-21T03:48:40.813Z,4.53
2022-09-21T03:49:43.482Z,15.54
2022-09-21T03:50:46.130Z,6.01
2022-09-21T03:51:48.634Z,6.02
2022-09-21T03:52:51.094Z,4.43
2022-09-21T03:53:53.536Z,3.63
2022-09-21T03:54:56.233Z,4.65
2022-09-21T03:55:58.666Z,5.24
2022-09-21T03:57:01.218Z,8.53
2022-09-21T03:58:03.651Z,4.97
2022-09-21T03:59:08.606Z,4.01
2022-09-21T04:00:11.458Z,4.00
2022-09-21T04:01:14.463Z,4.76
2022-09-21T04:02:17.782Z,6.12
2022-09-21T04:03:20.325Z,6.90
2022-09-21T04:04:22.769Z,4.44
2022-09-21T04:05:25.270Z,3.69
2022-09-21T04:06:28.031Z,2.39
2022-09-21T04:07:30.466Z,4.35
2022-09-21T04:08:32.922Z,4.33
2022-09-21T04:09:35.426Z,5.63
2022-09-21T04:10:38.088Z,3.78
2022-09-21T04:11:40.530Z,5.98
2022-09-21T04:12:42.997Z,9.41
2022-09-21T04:13:45.464Z,7.51
2022-09-21T04:14:47.925Z,10.95
2022-09-21T04:15:50.411Z,11.18
2022-09-21T04:16:53.279Z,13.35
2022-09-21T04:17:55.709Z,12.33
2022-09-21T04:18:58.147Z,12.69
2022-09-21T04:20:00.619Z,10.20
2022-09-21T04:21:03.399Z,16.42
2022-09-21T04:22:06.556Z,14.20
2022-09-21T04:23:09.003Z,14.69
2022-09-21T04:24:13.275Z,8.38
2022-09-21T04:25:17.555Z,14.42
2022-09-21T04:26:21.865Z,18.21
2022-09-21T04:27:26.111Z,11.59
2022-09-21T04:28:30.371Z,12.48
2022-09-21T04:29:34.623Z,13.92
2022-09-21T04:30:38.871Z,18.19
2022-09-21T04:31:41.335Z,14.68
2022-09-21T04:32:45.595Z,23.84
2022-09-21T04:33:49.845Z,15.76
2022-09-21T04:34:54.114Z,18.93
2022-09-21T04:35:58.370Z,14.64
2022-09-21T04:37:02.768Z,12.93
2022-09-21T04:38:06.886Z,10.90
2022-09-21T04:39:11.140Z,9.34
2022-09-21T04:40:15.453Z,14.88
2022-09-21T04:41:18.898Z,7.31
2022-09-21T04:42:21.877Z,8.67
2022-09-21T04:43:24.512Z,10.85
2022-09-21T04:44:28.747Z,10.77
2022-09-21T04:45:31.185Z,9.56
2022-09-21T04:46:34.137Z,8.58
2022-09-21T04:47:38.977Z,8.13
2022-09-21T04:48:41.512Z,4.42
2022-09-21T04:49:43.954Z,5.16
2022-09-21T04:50:46.670Z,4.17
2022-09-21T04:51:49.113Z,4.15
2022-09-21T04:52:51.601Z,5.85
2022-09-21T04:53:54.045Z,5.73
2022-09-21T04:54:56.483Z,3.77
2022-09-21T04:55:58.932Z,6.37
2022-09-21T04:57:01.672Z,3.42
2022-09-21T04:58:04.159Z,7.17
2022-09-21T04:59:06.774Z,4.83
2022-09-21T05:00:10.312Z,8.76
2022-09-21T05:01:12.832Z,3.18
2022-09-21T05:02:15.989Z,8.59
2022-09-21T05:03:18.491Z,6.69
2022-09-21T05:04:21.178Z,3.16
2022-09-21T05:05:23.691Z,3.09
2022-09-21T05:06:26.129Z,4.23
2022-09-21T05:07:28.570Z,2.63
2022-09-21T05:08:31.057Z,3.07
2022-09-21T05:09:33.502Z,3.23
2022-09-21T05:10:36.050Z,3.81
2022-09-21T05:11:38.500Z,5.65
2022-09-21T05:12:41.302Z,3.98
2022-09-21T05:13:44.259Z,4.24
2022-09-21T05:14:46.700Z,4.33
2022-09-21T05:15:49.168Z,3.39
2022-09-21T05:16:51.790Z,3.57
2022-09-21T05:17:54.228Z,5.45
2022-09-21T05:18:56.718Z,7.53
2022-09-21T05:19:59.154Z,4.36
2022-09-21T05:21:01.817Z,3.55
2022-09-21T05:22:04.447Z,3.50
2022-09-21T05:23:06.894Z,6.57
2022-09-21T05:24:09.562Z,4.34
2022-09-21T05:25:12.003Z,3.47
2022-09-21T05:26:15.169Z,2.70
2022-09-21T05:27:17.680Z,4.07
2022-09-21T05:28:20.179Z,8.60
2022-09-21T05:29:23.014Z,5.76
2022-09-21T05:30:25.602Z,7.66
2022-09-21T05:31:28.290Z,5.07
2022-09-21T05:32:30.816Z,8.47
2022-09-21T05:33:33.259Z,8.95
2022-09-21T05:34:36.875Z,4.98
2022-09-21T05:35:39.561Z,6.59
2022-09-21T05:36:42.109Z,7.76
2022-09-21T05:37:44.572Z,9.33
2022-09-21T05:38:47.032Z,6.44
2022-09-21T05:39:49.518Z,6.33
2022-09-21T05:40:52.279Z,7.76
2022-09-21T05:41:54.715Z,7.64
2022-09-21T05:42:57.156Z,6.87
2022-09-21T05:43:59.955Z,8.31
2022-09-21T05:45:02.429Z,7.13
2022-09-21T05:46:05.004Z,7.72
2022-09-21T05:47:07.549Z,9.15
2022-09-21T05:48:09.994Z,11.53
2022-09-21T05:49:12.449Z,9.48
2022-09-21T05:50:15.026Z,8.76
2022-09-21T05:51:17.465Z,8.90
2022-09-21T05:52:19.918Z,7.32
2022-09-21T05:53:22.397Z,6.79
2022-09-21T05:54:24.984Z,9.77
2022-09-21T05:55:27.472Z,7.69
2022-09-21T05:56:30.111Z,11.86
2022-09-21T05:57:32.561Z,13.03
2022-09-21T05:58:35.005Z,8.09
2022-09-21T05:59:37.452Z,9.10
2022-09-21T06:00:40.221Z,9.34
2022-09-21T06:01:42.732Z,8.28
2022-09-21T06:02:45.603Z,7.72
2022-09-21T06:03:48.152Z,9.92
2022-09-21T06:04:50.799Z,11.67
2022-09-21T06:05:53.267Z,9.31
2022-09-21T06:06:55.911Z,8.37
2022-09-21T06:07:58.352Z,10.35
2022-09-21T06:09:00.794Z,10.91
2022-09-21T06:10:03.873Z,10.52
2022-09-21T06:11:06.390Z,9.74
2022-09-21T06:12:08.830Z,9.00
2022-09-21T06:13:11.275Z,8.80
2022-09-21T06:14:13.718Z,9.31
2022-09-21T06:15:16.358Z,9.11
2022-09-21T06:16:19.064Z,9.87
2022-09-21T06:17:21.578Z,10.73
2022-09-21T06:18:24.019Z,9.14
2022-09-21T06:19:26.464Z,10.44
2022-09-21T06:20:29.019Z,8.79
2022-09-21T06:21:31.730Z,13.09
2022-09-21T06:22:34.289Z,10.11
2022-09-21T06:23:36.848Z,8.01
2022-09-21T06:24:39.298Z,7.53
2022-09-21T06:25:41.746Z,8.72
2022-09-21T06:26:44.445Z,9.06
2022-09-21T06:27:46.955Z,8.56
2022-09-21T06:28:49.408Z,11.41
2022-09-21T06:29:51.845Z,8.67
2022-09-21T06:30:54.516Z,7.55
2022-09-21T06:31:56.975Z,8.21
2022-09-21T06:32:59.788Z,10.30
2022-09-21T06:34:02.216Z,10.55
2022-09-21T06:35:04.661Z,10.07
2022-09-21T06:36:07.209Z,9.51
2022-09-21T06:37:09.710Z,9.71
2022-09-21T06:38:12.158Z,6.87
2022-09-21T06:39:14.925Z,10.18
2022-09-21T06:40:17.635Z,8.36
2022-09-21T06:41:21.554Z,8.94
2022-09-21T06:42:24.224Z,11.10
2022-09-21T06:43:26.699Z,7.01
2022-09-21T06:44:29.140Z,8.53
2022-09-21T06:45:31.617Z,6.97
2022-09-21T06:46:34.255Z,9.48
2022-09-21T06:47:36.734Z,8.44
2022-09-21T06:48:39.199Z,7.79
2022-09-21T06:49:42.648Z,8.69
2022-09-21T06:50:45.826Z,9.00
2022-09-21T06:51:48.265Z,7.84
2022-09-21T06:52:50.732Z,9.85
2022-09-21T06:53:53.179Z,9.13
2022-09-21T06:54:55.631Z,10.23
2022-09-21T06:55:58.069Z,8.50
2022-09-21T06:57:00.946Z,8.64
2022-09-21T06:58:03.554Z,9.50
2022-09-21T06:59:06.012Z,15.81
2022-09-21T07:00:08.955Z,9.35
2022-09-21T07:01:11.525Z,10.39
2022-09-21T07:02:14.384Z,10.26
2022-09-21T07:03:17.041Z,11.24
2022-09-21T07:04:24.430Z,7.29
2022-09-21T07:05:23.822Z,9.24
2022-09-21T07:06:26.470Z,12.49
2022-09-21T07:07:28.910Z,10.01
2022-09-21T07:10:40.242Z,8.92
2022-09-21T07:11:42.693Z,12.95
2022-09-21T07:12:45.478Z,12.42
2022-09-21T07:13:47.946Z,10.66
2022-09-21T07:14:50.396Z,10.19
2022-09-21T07:15:53.483Z,9.08
2022-09-21T07:16:56.281Z,7.99
2022-09-21T07:18:06.139Z,9.23
2022-09-21T07:19:11.157Z,12.44
2022-09-21T07:20:08.145Z,7.74
2022-09-21T07:21:11.246Z,8.54
2022-09-21T07:22:13.730Z,7.54
2022-09-21T07:23:16.199Z,7.03
2022-09-21T07:24:18.709Z,7.54
2022-09-21T07:25:21.142Z,10.24
2022-09-21T07:26:24.003Z,6.76
2022-09-21T07:27:26.435Z,11.97
2022-09-21T07:28:28.931Z,6.96
2022-09-21T07:29:31.457Z,5.86
2022-09-21T07:30:33.989Z,7.49
2022-09-21T07:31:36.479Z,6.09
2022-09-21T07:32:39.059Z,4.07
2022-09-21T07:33:41.526Z,4.34
2022-09-21T07:34:44.009Z,5.29
2022-09-21T07:35:46.345Z,10.03
2022-09-21T07:36:49.079Z,7.01
2022-09-21T07:37:51.519Z,4.16
2022-09-21T07:38:53.977Z,5.20
2022-09-21T07:39:56.437Z,6.92
2022-09-21T07:40:59.217Z,4.91
2022-09-21T07:42:01.859Z,7.17
2022-09-21T07:43:04.296Z,3.86
2022-09-21T07:44:06.884Z,4.89
2022-09-21T07:45:09.639Z,4.60
2022-09-21T07:46:13.512Z,3.46
2022-09-21T07:47:15.952Z,3.81
2022-09-21T07:48:18.384Z,4.03
2022-09-21T07:49:20.873Z,8.93
2022-09-21T07:50:23.739Z,3.27
2022-09-21T07:51:26.204Z,6.43
2022-09-21T07:52:28.647Z,3.41
2022-09-21T07:53:31.082Z,4.28
2022-09-21T07:54:33.534Z,6.66
2022-09-21T07:55:36.045Z,4.19
2022-09-21T07:56:38.577Z,4.35
2022-09-21T07:57:41.017Z,5.57
2022-09-21T07:58:43.455Z,5.24
2022-09-21T07:59:46.000Z,3.26
2022-09-21T08:00:48.760Z,3.24
2022-09-21T08:01:51.261Z,5.57
2022-09-21T08:02:53.706Z,2.79
2022-09-21T08:03:56.131Z,4.73
2022-09-21T08:04:58.594Z,3.85
2022-09-21T08:06:01.054Z,3.27
2022-09-21T08:07:03.484Z,6.88
2022-09-21T08:08:05.923Z,4.51
2022-09-21T08:09:08.382Z,3.02
2022-09-21T08:10:11.717Z,6.02
2022-09-21T08:11:14.195Z,3.59
2022-09-21T08:12:16.892Z,5.65
2022-09-21T08:13:19.359Z,2.35
2022-09-21T08:14:26.132Z,4.10
2022-09-21T08:15:47.643Z,2.42
2022-09-21T08:16:30.616Z,2.82
2022-09-21T08:17:33.234Z,4.02
2022-09-21T08:18:35.673Z,7.47
2022-09-21T08:19:38.115Z,3.72
2022-09-21T08:20:40.659Z,3.69
2022-09-21T08:21:43.175Z,5.29
2022-09-21T08:22:45.637Z,2.33
2022-09-21T08:23:48.059Z,3.46
2022-09-21T08:24:50.493Z,2.16
2022-09-21T08:25:52.971Z,2.58
2022-09-21T08:26:55.858Z,5.29
2022-09-21T08:27:58.694Z,2.73
2022-09-21T08:29:01.130Z,3.86
2022-09-21T08:30:03.579Z,3.24
2022-09-21T08:31:06.063Z,3.29
2022-09-21T08:32:08.585Z,5.06
2022-09-21T08:33:11.159Z,2.41
2022-09-21T08:34:13.602Z,3.51
2022-09-21T08:35:16.037Z,4.49
2022-09-21T08:36:18.808Z,3.12
2022-09-21T08:37:21.295Z,3.44
2022-09-21T08:38:23.737Z,1.96
2022-09-21T08:39:26.170Z,4.48
2022-09-21T08:40:28.851Z,3.56
2022-09-21T08:41:31.593Z,7.62
2022-09-21T08:42:34.295Z,1.66
2022-09-21T08:43:36.780Z,3.25
2022-09-21T08:44:39.203Z,1.81
2022-09-21T08:45:41.637Z,2.49
2022-09-21T08:46:44.339Z,1.97
2022-09-21T08:47:46.946Z,4.46
2022-09-21T08:48:49.398Z,1.19
2022-09-21T08:49:51.839Z,1.48
2022-09-21T08:50:54.312Z,1.81
2022-09-21T08:51:56.774Z,1.75
2022-09-21T08:52:59.745Z,1.57
2022-09-21T08:54:02.226Z,2.85
2022-09-21T08:55:04.696Z,2.44
2022-09-21T08:56:07.634Z,1.62
2022-09-21T08:57:10.078Z,1.11
2022-09-21T08:58:12.560Z,1.95
2022-09-21T08:59:14.996Z,5.89
2022-09-21T09:00:17.757Z,2.26
2022-09-21T09:01:20.489Z,1.33
2022-09-21T09:02:23.085Z,3.67
2022-09-21T09:03:25.626Z,3.91
2022-09-21T09:04:28.082Z,1.83
2022-09-21T09:05:30.537Z,1.54
2022-09-21T09:06:33.174Z,1.35
2022-09-21T09:07:35.613Z,1.55
2022-09-21T09:08:38.094Z,1.04
2022-09-21T09:09:40.526Z,4.59
2022-09-21T09:10:43.174Z,1.21
2022-09-21T09:11:45.648Z,1.31
2022-09-21T09:12:48.093Z,3.59
2022-09-21T09:13:50.576Z,3.33
2022-09-21T09:14:53.048Z,3.90
2022-09-21T09:15:55.506Z,3.26
2022-09-21T09:16:58.238Z,0.99
2022-09-21T09:18:00.686Z,1.41
2022-09-21T09:19:03.187Z,1.15
2022-09-21T09:20:06.038Z,1.91
2022-09-21T09:21:08.494Z,0.58
2022-09-21T09:22:10.945Z,1.87
2022-09-21T09:23:13.398Z,1.15
2022-09-21T09:24:15.871Z,1.69
2022-09-21T09:25:18.325Z,2.67
2022-09-21T09:26:21.074Z,2.03
2022-09-21T09:27:23.535Z,1.86
2022-09-21T09:28:25.976Z,0.79
2022-09-21T09:29:28.464Z,0.92
2022-09-21T09:30:31.122Z,0.96
2022-09-21T09:31:33.596Z,1.31
2022-09-21T09:32:36.200Z,2.39
2022-09-21T09:33:38.651Z,0.92
2022-09-21T09:34:41.130Z,0.83
2022-09-21T09:35:43.576Z,0.67
2022-09-21T09:36:58.446Z,0.95
2022-09-21T09:37:50.595Z,1.57
2022-09-21T09:38:53.037Z,1.38
2022-09-21T09:39:55.594Z,0.40
2022-09-21T09:40:58.156Z,2.46
2022-09-21T09:42:00.638Z,0.94
2022-09-21T09:43:04.843Z,0.79
2022-09-21T09:44:07.440Z,0.78
2022-09-21T09:45:09.955Z,1.52
2022-09-21T09:46:13.663Z,0.70
2022-09-21T09:47:16.387Z,0.58
2022-09-21T09:48:18.832Z,1.05
2022-09-21T09:49:21.309Z,1.04
2022-09-21T09:50:24.105Z,1.17
2022-09-21T09:51:26.544Z,1.97
2022-09-21T09:52:28.994Z,4.51
2022-09-21T09:53:31.474Z,0.88
2022-09-21T09:54:34.031Z,1.17
2022-09-21T09:55:36.533Z,2.39
2022-09-21T09:56:39.035Z,0.84
2022-09-21T09:57:41.487Z,0.40
2022-09-21T09:58:43.940Z,1.44
2022-09-21T09:59:49.372Z,1.84
2022-09-21T10:00:51.117Z,1.15
2022-09-21T10:01:53.605Z,0.84
2022-09-21T10:02:56.137Z,4.17
2022-09-21T10:03:58.683Z,1.55
2022-09-21T10:05:01.599Z,4.16
2022-09-21T10:06:04.425Z,0.93
2022-09-21T10:07:06.880Z,0.46
2022-09-21T10:08:09.354Z,0.93
2022-09-21T10:09:11.864Z,0.76
2022-09-21T10:10:14.715Z,0.56
2022-09-21T10:11:17.221Z,2.60
2022-09-21T10:12:19.662Z,0.68
2022-09-21T10:13:22.152Z,0.62
2022-09-21T10:14:24.624Z,1.14
2022-09-21T10:15:27.166Z,1.66
2022-09-21T10:16:29.883Z,0.67
2022-09-21T10:17:32.402Z,1.78
2022-09-21T10:18:34.846Z,0.70
2022-09-21T10:19:37.288Z,0.88
2022-09-21T10:20:39.935Z,0.70
2022-09-21T10:21:42.408Z,1.43
2022-09-21T10:22:44.867Z,0.78
2022-09-21T10:23:47.322Z,0.61
2022-09-21T10:24:49.767Z,1.69
2022-09-21T10:25:52.308Z,0.70
2022-09-21T10:26:55.061Z,0.63
2022-09-21T10:27:57.500Z,0.93
2022-09-21T10:28:59.945Z,1.35
2022-09-21T10:30:02.722Z,1.03
2022-09-21T10:31:05.206Z,1.39
2022-09-21T10:32:12.362Z,1.37
2022-09-21T10:33:12.134Z,3.42
2022-09-21T10:34:14.616Z,1.40
2022-09-21T10:35:17.103Z,2.36
2022-09-21T10:36:19.660Z,1.21
2022-09-21T10:37:22.156Z,1.74
2022-09-21T10:38:24.606Z,0.64
2022-09-21T10:39:27.100Z,1.41
2022-09-21T10:40:29.687Z,1.27
2022-09-21T10:41:32.191Z,0.75
2022-09-21T10:42:34.810Z,1.05
2022-09-21T10:43:41.207Z,1.57
2022-09-21T10:44:41.669Z,0.74
2022-09-21T10:45:44.189Z,1.63
2022-09-21T10:46:47.026Z,0.72
2022-09-21T10:47:49.616Z,2.35
2022-09-21T10:48:52.059Z,0.61
2022-09-21T10:49:54.500Z,0.76
2022-09-21T10:50:57.238Z,1.80
2022-09-21T10:51:59.677Z,1.89
2022-09-21T10:53:02.154Z,1.10
2022-09-21T10:54:04.591Z,1.02
2022-09-21T10:55:07.039Z,0.94
2022-09-21T10:56:15.916Z,1.19
2022-09-21T10:57:14.348Z,0.71
2022-09-21T10:58:16.851Z,0.85
2022-09-21T10:59:19.296Z,0.93
2022-09-21T11:00:22.244Z,1.57
2022-09-21T11:01:25.023Z,0.87
2022-09-21T11:02:27.673Z,3.18
2022-09-21T11:03:30.283Z,0.66
2022-09-21T11:04:32.756Z,0.58
2022-09-21T11:05:35.196Z,0.55
2022-09-21T11:06:37.947Z,0.40
2022-09-21T11:07:40.389Z,1.50
2022-09-21T11:08:42.924Z,0.68
2022-09-21T11:09:45.446Z,0.67
2022-09-21T11:10:47.986Z,0.93
2022-09-21T11:11:50.483Z,0.79
2022-09-21T11:12:52.949Z,2.15
2022-09-21T11:13:55.510Z,2.56
2022-09-21T11:14:57.974Z,0.75
2022-09-21T11:16:00.500Z,2.06
2022-09-21T11:17:03.122Z,0.92
2022-09-21T11:18:05.547Z,0.83
2022-09-21T11:19:08.036Z,0.87
2022-09-21T11:20:11.465Z,0.74
2022-09-21T11:21:14.110Z,0.60
2022-09-21T11:22:16.559Z,1.57
2022-09-21T11:23:19.002Z,1.34
2022-09-21T11:24:21.489Z,3.33
2022-09-21T11:25:24.186Z,1.35
2022-09-21T11:26:26.836Z,3.14
2022-09-21T11:27:29.283Z,1.37
2022-09-21T11:28:31.730Z,1.63
2022-09-21T11:29:34.201Z,2.19
2022-09-21T11:30:36.875Z,0.94
2022-09-21T11:31:39.390Z,2.17
2022-09-21T11:32:41.877Z,3.13
2022-09-21T11:33:44.315Z,1.13
2022-09-21T11:34:46.779Z,2.82
2022-09-21T11:35:49.217Z,4.14
2022-09-21T11:36:51.962Z,1.19
2022-09-21T11:37:54.423Z,1.52
2022-09-21T11:38:56.854Z,2.66
2022-09-21T11:39:59.436Z,4.02
2022-09-21T11:41:02.006Z,2.48
2022-09-21T11:42:04.447Z,1.77
2022-09-21T11:43:06.889Z,1.15
2022-09-21T11:44:11.658Z,2.84
2022-09-21T11:45:13.766Z,0.90
2022-09-21T11:46:16.336Z,1.35
2022-09-21T11:47:18.853Z,2.63
2022-09-21T11:48:21.293Z,0.88
2022-09-21T11:49:23.723Z,1.58
2022-09-21T11:50:30.640Z,1.29
2022-09-21T11:51:30.777Z,0.64
2022-09-21T11:52:33.343Z,1.13
2022-09-21T11:53:35.791Z,0.91
2022-09-21T11:54:38.222Z,2.10
2022-09-21T11:55:41.093Z,0.89
2022-09-21T11:56:43.640Z,0.60
2022-09-21T11:57:46.091Z,2.83
2022-09-21T11:58:51.520Z,1.15
2022-09-21T11:59:52.908Z,1.28
2022-09-21T12:00:55.567Z,0.87
2022-09-21T12:01:58.099Z,1.72
2022-09-21T12:03:00.594Z,0.98
2022-09-21T12:04:03.054Z,1.04
2022-09-21T12:05:05.487Z,1.01
2022-09-21T12:06:08.559Z,1.56
2022-09-21T12:07:10.997Z,0.89
2022-09-21T12:08:13.436Z,1.40
2022-09-21T12:09:15.937Z,1.97
2022-09-21T12:10:18.570Z,2.34
2022-09-21T12:11:21.035Z,1.37
2022-09-21T12:12:23.474Z,2.85
2022-09-21T12:13:25.915Z,1.54
2022-09-21T12:14:28.390Z,0.77
2022-09-21T12:15:30.934Z,0.75
2022-09-21T12:16:33.492Z,4.96
2022-09-21T12:17:36.080Z,1.19
2022-09-21T12:18:40.420Z,1.56
2022-09-21T12:19:42.868Z,1.11
2022-09-21T12:20:45.607Z,1.05
2022-09-21T12:21:48.091Z,0.92
2022-09-21T12:22:50.525Z,0.85
2022-09-21T12:23:52.967Z,1.18
2022-09-21T12:24:55.437Z,4.61
2022-09-21T12:25:57.931Z,0.84
2022-09-21T12:27:00.753Z,0.77
2022-09-21T12:28:03.401Z,1.31
2022-09-21T12:29:05.981Z,3.55
2022-09-21T12:30:08.742Z,1.09
2022-09-21T12:31:11.228Z,2.05
2022-09-21T12:32:13.763Z,0.49
2022-09-21T12:33:16.309Z,0.98
2022-09-21T12:34:18.760Z,1.04
2022-09-21T12:35:21.340Z,2.41
2022-09-21T12:36:24.085Z,1.06
2022-09-21T12:37:26.547Z,0.99
2022-09-21T12:38:29.032Z,2.25
2022-09-21T12:39:31.530Z,3.27
2022-09-21T12:40:34.216Z,4.27
2022-09-21T12:41:37.109Z,0.56
2022-09-21T12:42:39.889Z,0.91
2022-09-21T12:43:42.387Z,1.05
2022-09-21T12:44:45.993Z,1.00
2022-09-21T12:45:48.811Z,1.36
2022-09-21T12:46:53.516Z,3.00
2022-09-21T12:47:55.838Z,1.12
2022-09-21T12:48:58.279Z,2.69
2022-09-21T12:50:00.728Z,1.23
2022-09-21T12:51:06.019Z,0.98
2022-09-21T12:52:07.518Z,1.27
2022-09-21T12:53:09.983Z,0.73
2022-09-21T12:54:12.418Z,4.17
2022-09-21T12:55:16.965Z,1.29
2022-09-21T12:56:19.444Z,0.91
2022-09-21T12:57:40.739Z,0.92
2022-09-21T12:58:26.450Z,1.37
2022-09-21T12:59:28.903Z,1.15
2022-09-21T13:00:31.436Z,1.26
2022-09-21T13:01:33.973Z,1.52
2022-09-21T13:02:36.957Z,0.87
2022-09-21T13:03:39.731Z,1.43
2022-09-21T13:04:42.168Z,1.45
2022-09-21T13:05:44.620Z,1.51
2022-09-21T13:06:47.361Z,1.07
2022-09-21T13:07:49.961Z,5.28
2022-09-21T13:08:52.430Z,1.85
2022-09-21T13:09:54.866Z,2.42
2022-09-21T13:10:57.708Z,2.11
2022-09-21T13:12:00.154Z,0.87
2022-09-21T13:13:02.692Z,1.21
2022-09-21T13:14:05.228Z,2.11
2022-09-21T13:15:07.655Z,1.88
2022-09-21T13:16:10.525Z,1.42
2022-09-21T13:17:13.033Z,1.11
2022-09-21T13:18:15.471Z,1.74
2022-09-21T13:19:17.969Z,1.23
2022-09-21T13:20:20.529Z,0.88
2022-09-21T13:21:23.002Z,1.32
2022-09-21T13:22:25.448Z,1.59
2022-09-21T13:23:27.884Z,1.61
2022-09-21T13:24:30.387Z,4.63
2022-09-21T13:25:32.929Z,1.47
2022-09-21T13:26:35.584Z,2.31
2022-09-21T13:27:38.008Z,1.07
2022-09-21T13:28:40.451Z,4.65
2022-09-21T13:29:42.939Z,1.73
2022-09-21T13:30:45.787Z,1.21
2022-09-21T13:31:48.242Z,0.88
2022-09-21T13:32:50.663Z,1.37
2022-09-21T13:33:53.714Z,1.87
2022-09-21T13:34:56.181Z,3.71
2022-09-21T13:35:58.639Z,1.14
2022-09-21T13:37:01.385Z,1.33
2022-09-21T13:38:04.154Z,1.75
2022-09-21T13:39:06.997Z,1.93
2022-09-21T13:40:12.221Z,0.88
2022-09-21T13:41:14.431Z,2.75
2022-09-21T13:42:16.891Z,1.15
2022-09-21T13:43:19.331Z,1.51
2022-09-21T13:44:21.975Z,1.52
2022-09-21T13:45:24.613Z,1.09
2022-09-21T13:46:27.404Z,2.24
2022-09-21T13:47:29.857Z,1.05
2022-09-21T13:48:32.306Z,1.19
2022-09-21T13:49:34.763Z,1.24
2022-09-21T13:50:37.351Z,1.77
2022-09-21T13:51:39.789Z,3.25
2022-09-21T13:52:42.328Z,1.55
2022-09-21T13:53:44.772Z,1.79
2022-09-21T13:54:47.275Z,1.71